createdAt,value
2022-08-31T00:00:00.564Z,30
2022-08-31T00:01:10.217Z,34
2022-08-31T00:02:19.787Z,35
2022-08-31T00:03:28.987Z,35
2022-08-31T00:04:38.536Z,39
2022-08-31T00:05:42.835Z,42
2022-08-31T00:06:47.087Z,47
2022-08-31T00:07:51.713Z,54
2022-08-31T00:08:56.203Z,48
2022-08-31T00:10:00.523Z,59
2022-08-31T00:12:14.471Z,56
2022-08-31T00:13:18.900Z,57
2022-08-31T00:14:23.435Z,53
2022-08-31T00:15:27.655Z,55
2022-08-31T00:16:32.199Z,56
2022-08-31T00:17:36.771Z,50
2022-08-31T00:19:44.519Z,50
2022-08-31T00:20:48.788Z,46
2022-08-31T00:21:53.118Z,40
2022-08-31T00:22:57.583Z,40
2022-08-31T00:24:05.384Z,38
2022-08-31T00:25:09.971Z,35
2022-08-31T00:26:14.747Z,29
2022-08-31T00:27:19.075Z,28
2022-08-31T00:28:23.344Z,28
2022-08-31T00:29:27.520Z,25
2022-08-31T00:30:32.236Z,29
2022-08-31T00:31:37.025Z,28
2022-08-31T00:32:41.537Z,32
2022-08-31T00:33:47.227Z,28
2022-08-31T00:34:51.927Z,29
2022-08-31T00:35:57.006Z,26
2022-08-31T00:37:01.451Z,32
2022-08-31T00:38:05.866Z,29
2022-08-31T00:39:10.110Z,28
2022-08-31T00:40:14.749Z,38
2022-08-31T00:41:19.199Z,40
2022-08-31T00:42:23.827Z,36
2022-08-31T00:43:28.374Z,34
2022-08-31T00:44:35.732Z,41
2022-08-31T00:45:40.326Z,38
2022-08-31T00:46:44.599Z,43
2022-08-31T00:47:48.922Z,47
2022-08-31T00:48:53.083Z,43
2022-08-31T00:50:00.354Z,57
2022-08-31T00:51:05.002Z,50
2022-08-31T00:52:09.386Z,58
2022-08-31T00:54:17.943Z,58
2022-08-31T00:55:22.373Z,55
2022-08-31T00:56:31.773Z,61
2022-08-31T00:57:36.476Z,61
2022-08-31T00:58:40.891Z,60
2022-08-31T00:59:45.462Z,63
2022-08-31T01:00:49.944Z,57
2022-08-31T01:01:54.728Z,62
2022-08-31T01:02:59.122Z,71
2022-08-31T01:04:03.591Z,56
2022-08-31T01:05:08.060Z,55
2022-08-31T01:06:12.858Z,57
2022-08-31T01:07:17.655Z,50
2022-08-31T01:08:27.016Z,54
2022-08-31T01:09:26.240Z,50
2022-08-31T01:10:30.435Z,47
2022-08-31T01:11:41.402Z,43
2022-08-31T01:12:47.166Z,41
2022-08-31T01:13:51.718Z,43
2022-08-31T01:15:59.786Z,39
2022-08-31T01:17:07.222Z,34
2022-08-31T01:18:12.518Z,31
2022-08-31T01:19:16.871Z,33
2022-08-31T01:20:29.126Z,37
2022-08-31T01:21:33.847Z,32
2022-08-31T01:22:41.398Z,42
2022-08-31T01:23:55.726Z,45
2022-08-31T01:25:01.079Z,44
2022-08-31T01:26:06.002Z,45
2022-08-31T01:27:10.474Z,46
2022-08-31T01:28:14.707Z,49
2022-08-31T01:29:19.014Z,49
2022-08-31T01:30:23.314Z,48
2022-08-31T01:31:27.772Z,45
2022-08-31T01:32:37.174Z,46
2022-08-31T01:34:45.215Z,51
2022-08-31T01:35:49.718Z,48
2022-08-31T01:36:54.354Z,47
2022-08-31T01:37:58.608Z,42
2022-08-31T01:39:03.022Z,39
2022-08-31T01:40:07.504Z,35
2022-08-31T01:41:13.015Z,37
2022-08-31T01:42:16.198Z,34
2022-08-31T01:43:20.858Z,26
2022-08-31T01:44:25.286Z,25
2022-08-31T01:45:30.246Z,25
2022-08-31T01:46:34.638Z,27
2022-08-31T01:47:38.890Z,33
2022-08-31T01:48:43.939Z,31
2022-08-31T01:49:48.365Z,36
2022-08-31T01:50:52.748Z,35
2022-08-31T01:51:57.982Z,42
2022-08-31T01:53:02.558Z,37
2022-08-31T01:54:07.022Z,40
2022-08-31T01:55:11.358Z,42
2022-08-31T01:57:33.868Z,46
2022-08-31T01:58:30.086Z,45
2022-08-31T01:59:34.463Z,44
2022-08-31T02:00:38.796Z,47
2022-08-31T02:01:43.063Z,43
2022-08-31T02:02:47.264Z,36
2022-08-31T02:03:51.539Z,43
2022-08-31T02:04:55.918Z,38
2022-08-31T02:07:09.542Z,39
2022-08-31T02:08:14.118Z,36
2022-08-31T02:09:19.098Z,30
2022-08-31T02:10:23.766Z,33
2022-08-31T02:11:28.350Z,25
2022-08-31T02:12:33.446Z,34
2022-08-31T02:13:37.774Z,31
2022-08-31T02:14:42.286Z,26
2022-08-31T02:15:46.646Z,25
2022-08-31T02:16:51.222Z,30
2022-08-31T02:17:55.571Z,26
2022-08-31T02:18:59.855Z,36
2022-08-31T02:20:04.638Z,37
2022-08-31T02:21:09.280Z,30
2022-08-31T02:22:13.967Z,28
2022-08-31T02:23:18.446Z,31
2022-08-31T02:24:22.910Z,34
2022-08-31T02:25:27.158Z,43
2022-08-31T02:26:31.426Z,47
2022-08-31T02:27:35.742Z,47
2022-08-31T02:28:40.011Z,42
2022-08-31T02:29:44.330Z,42
2022-08-31T02:30:48.687Z,43
2022-08-31T02:31:53.220Z,46
2022-08-31T02:32:57.552Z,45
2022-08-31T02:34:02.247Z,43
2022-08-31T02:35:06.656Z,52
2022-08-31T02:36:11.194Z,47
2022-08-31T02:37:16.103Z,43
2022-08-31T02:38:20.735Z,40
2022-08-31T02:39:25.142Z,40
2022-08-31T02:40:29.593Z,38
2022-08-31T02:41:33.958Z,34
2022-08-31T02:42:49.226Z,28
2022-08-31T02:43:42.450Z,32
2022-08-31T02:44:46.615Z,35
2022-08-31T02:45:51.136Z,34
2022-08-31T02:46:56.069Z,25
2022-08-31T02:48:00.354Z,31
2022-08-31T02:49:04.630Z,28
2022-08-31T02:50:08.934Z,31
2022-08-31T02:51:13.490Z,25
2022-08-31T02:52:18.150Z,26
2022-08-31T02:53:22.742Z,30
2022-08-31T02:54:27.230Z,32
2022-08-31T02:55:31.614Z,37
2022-08-31T02:56:36.234Z,25
2022-08-31T02:57:40.849Z,27
2022-08-31T02:58:45.234Z,31
2022-08-31T02:59:49.682Z,27
2022-08-31T03:00:54.076Z,36
2022-08-31T03:01:58.615Z,38
2022-08-31T03:03:02.974Z,33
2022-08-31T03:04:07.414Z,34
2022-08-31T03:05:11.786Z,34
2022-08-31T03:06:16.406Z,41
2022-08-31T03:07:20.926Z,42
2022-08-31T03:08:25.342Z,45
2022-08-31T03:09:29.774Z,43
2022-08-31T03:10:34.114Z,50
2022-08-31T03:11:38.354Z,47
2022-08-31T03:12:42.766Z,50
2022-08-31T03:13:47.103Z,48
2022-08-31T03:14:51.495Z,52
2022-08-31T03:15:55.986Z,51
2022-08-31T03:17:00.413Z,60
2022-08-31T03:18:06.647Z,46
2022-08-31T03:19:09.454Z,48
2022-08-31T03:20:13.985Z,46
2022-08-31T03:21:18.297Z,45
2022-08-31T03:22:22.688Z,46
2022-08-31T03:23:26.991Z,42
2022-08-31T03:24:31.258Z,41
2022-08-31T03:25:35.835Z,37
2022-08-31T03:26:40.146Z,34
2022-08-31T03:27:44.597Z,34
2022-08-31T03:28:49.110Z,37
2022-08-31T03:29:53.526Z,29
2022-08-31T03:30:58.156Z,32
2022-08-31T03:32:02.518Z,32
2022-08-31T03:33:06.976Z,29
2022-08-31T03:34:11.614Z,31
2022-08-31T03:35:15.908Z,32
2022-08-31T03:36:20.326Z,26
2022-08-31T03:37:24.895Z,32
2022-08-31T03:39:32.797Z,29
2022-08-31T03:40:37.117Z,35
2022-08-31T03:41:41.465Z,39
2022-08-31T03:42:45.850Z,38
2022-08-31T03:43:50.220Z,36
2022-08-31T03:44:54.670Z,39
2022-08-31T03:45:59.356Z,34
2022-08-31T03:47:03.854Z,33
2022-08-31T03:48:12.136Z,42
2022-08-31T03:49:12.999Z,43
2022-08-31T03:50:17.362Z,43
2022-08-31T03:51:21.730Z,47
2022-08-31T03:52:26.111Z,41
2022-08-31T03:53:30.468Z,44
2022-08-31T03:54:34.794Z,51
2022-08-31T03:55:39.506Z,47
2022-08-31T03:56:44.030Z,41
2022-08-31T03:57:48.562Z,45
2022-08-31T03:58:53.038Z,40
2022-08-31T03:59:57.682Z,39
2022-08-31T04:01:02.150Z,36
2022-08-31T04:02:06.932Z,32
2022-08-31T04:03:11.141Z,31
2022-08-31T04:04:15.534Z,31
2022-08-31T04:05:19.987Z,30
2022-08-31T04:06:24.498Z,25
2022-08-31T04:07:28.858Z,29
2022-08-31T04:08:33.244Z,30
2022-08-31T04:09:37.535Z,31
2022-08-31T04:10:42.234Z,32
2022-08-31T04:11:46.778Z,26
2022-08-31T04:12:51.096Z,30
2022-08-31T04:13:55.782Z,25
2022-08-31T04:14:59.953Z,29
2022-08-31T04:16:04.727Z,32
2022-08-31T04:17:08.974Z,30
2022-08-31T04:18:13.330Z,26
2022-08-31T04:19:17.843Z,35
2022-08-31T04:20:24.573Z,35
2022-08-31T04:21:26.661Z,35
2022-08-31T04:22:34.097Z,40
2022-08-31T04:23:38.850Z,39
2022-08-31T04:24:43.518Z,41
2022-08-31T04:25:47.941Z,47
2022-08-31T04:26:52.754Z,47
2022-08-31T04:27:58.168Z,49
2022-08-31T04:29:01.698Z,48
2022-08-31T04:30:06.111Z,45
2022-08-31T04:31:10.787Z,41
2022-08-31T04:32:14.966Z,45
2022-08-31T04:33:19.700Z,46
2022-08-31T04:34:23.954Z,39
2022-08-31T04:35:28.553Z,39
2022-08-31T04:36:33.162Z,38
2022-08-31T04:37:37.758Z,45
2022-08-31T04:38:42.494Z,36
2022-08-31T04:39:50.596Z,33
2022-08-31T04:40:52.532Z,33
2022-08-31T04:41:55.546Z,27
2022-08-31T04:43:00.337Z,31
2022-08-31T04:44:04.702Z,31
2022-08-31T04:45:09.366Z,29
2022-08-31T04:46:14.024Z,28
2022-08-31T04:47:18.566Z,28
2022-08-31T04:48:23.081Z,29
2022-08-31T04:49:27.548Z,27
2022-08-31T04:50:31.870Z,31
2022-08-31T04:51:36.497Z,32
2022-08-31T04:52:41.226Z,28
2022-08-31T04:53:45.590Z,33
2022-08-31T04:54:49.921Z,36
2022-08-31T04:55:54.137Z,35
2022-08-31T04:56:58.368Z,31
2022-08-31T04:58:02.602Z,33
2022-08-31T04:59:07.709Z,33
2022-08-31T05:00:12.334Z,43
2022-08-31T05:01:16.718Z,36
2022-08-31T05:02:21.016Z,41
2022-08-31T05:03:25.226Z,34
2022-08-31T05:04:29.855Z,43
2022-08-31T05:05:34.298Z,48
2022-08-31T05:06:38.706Z,48
2022-08-31T05:07:43.074Z,45
2022-08-31T05:08:47.750Z,42
2022-08-31T05:09:54.673Z,41
2022-08-31T05:10:59.113Z,47
2022-08-31T05:12:04.124Z,43
2022-08-31T05:13:09.605Z,43
2022-08-31T05:14:13.842Z,42
2022-08-31T05:15:18.311Z,40
2022-08-31T05:16:22.728Z,35
2022-08-31T05:17:26.810Z,34
2022-08-31T05:18:31.065Z,31
2022-08-31T05:19:39.174Z,35
2022-08-31T05:20:39.751Z,37
2022-08-31T05:21:44.370Z,35
2022-08-31T05:22:49.042Z,33
2022-08-31T05:23:53.301Z,30
2022-08-31T05:24:58.141Z,26
2022-08-31T05:26:02.426Z,34
2022-08-31T05:27:07.067Z,33
2022-08-31T05:28:11.569Z,30
2022-08-31T05:29:16.209Z,34
2022-08-31T05:30:20.850Z,28
2022-08-31T05:31:25.207Z,37
2022-08-31T05:32:32.593Z,41
2022-08-31T05:33:37.202Z,29
2022-08-31T05:34:41.561Z,37
2022-08-31T05:35:46.125Z,39
2022-08-31T05:36:50.909Z,63
2022-08-31T05:37:55.185Z,47
2022-08-31T05:39:01.205Z,46
2022-08-31T05:40:04.950Z,49
2022-08-31T05:41:09.458Z,48
2022-08-31T05:42:13.833Z,36
2022-08-31T05:43:18.297Z,40
2022-08-31T05:44:22.908Z,40
2022-08-31T05:45:26.558Z,35
2022-08-31T05:46:31.167Z,36
2022-08-31T05:47:35.313Z,29
2022-08-31T05:48:39.985Z,31
2022-08-31T05:49:44.537Z,30
2022-08-31T05:50:49.122Z,33
2022-08-31T05:51:53.698Z,33
2022-08-31T05:52:58.146Z,32
2022-08-31T05:54:02.609Z,29
2022-08-31T05:55:07.073Z,25
2022-08-31T05:56:11.341Z,29
2022-08-31T05:57:15.789Z,34
2022-08-31T05:58:20.181Z,33
2022-08-31T05:59:24.492Z,31
2022-08-31T06:00:29.255Z,33
2022-08-31T06:01:33.504Z,29
2022-08-31T06:02:37.957Z,37
2022-08-31T06:03:42.393Z,39
2022-08-31T06:04:46.785Z,36
2022-08-31T06:05:51.439Z,43
2022-08-31T06:06:55.922Z,43
2022-08-31T06:08:00.687Z,43
2022-08-31T06:10:09.058Z,47
2022-08-31T06:11:13.947Z,41
2022-08-31T06:12:18.539Z,50
2022-08-31T06:13:23.047Z,39
2022-08-31T06:14:28.090Z,45
2022-08-31T06:15:32.366Z,43
2022-08-31T06:16:36.873Z,42
2022-08-31T06:17:41.112Z,44
2022-08-31T06:18:45.726Z,48
2022-08-31T06:19:53.094Z,43
2022-08-31T06:20:57.379Z,45
2022-08-31T06:22:06.823Z,43
2022-08-31T06:23:11.498Z,34
2022-08-31T06:24:16.111Z,34
2022-08-31T06:25:20.398Z,36
2022-08-31T06:26:24.867Z,33
2022-08-31T06:27:29.366Z,30
2022-08-31T06:28:34.600Z,28
2022-08-31T06:29:38.983Z,32
2022-08-31T06:30:54.663Z,36
2022-08-31T06:31:52.958Z,32
2022-08-31T06:32:58.752Z,35
2022-08-31T06:34:02.023Z,34
2022-08-31T06:35:06.708Z,36
2022-08-31T06:36:11.122Z,35
2022-08-31T06:37:18.809Z,41
2022-08-31T06:38:19.963Z,43
2022-08-31T06:39:24.595Z,47
2022-08-31T06:40:29.109Z,45
2022-08-31T06:41:36.571Z,46
2022-08-31T06:42:37.787Z,56
2022-08-31T06:43:42.298Z,55
2022-08-31T06:44:46.600Z,53
2022-08-31T06:45:51.480Z,52
2022-08-31T06:46:55.942Z,56
2022-08-31T06:48:00.455Z,52
2022-08-31T06:49:04.795Z,46
2022-08-31T06:50:09.314Z,54
2022-08-31T06:51:14.055Z,57
2022-08-31T06:52:19.211Z,61
2022-08-31T06:53:23.547Z,53
2022-08-31T06:54:29.993Z,65
2022-08-31T06:55:32.190Z,55
2022-08-31T06:56:36.702Z,56
2022-08-31T06:58:44.706Z,46
2022-08-31T06:59:49.022Z,67
2022-08-31T07:00:53.594Z,52
2022-08-31T07:01:58.359Z,43
2022-08-31T07:03:03.031Z,46
2022-08-31T07:04:07.396Z,49
2022-08-31T07:05:15.664Z,54
2022-08-31T07:07:20.665Z,37
2022-08-31T07:08:25.269Z,41
2022-08-31T07:09:30.153Z,38
2022-08-31T07:10:34.815Z,36
2022-08-31T07:11:43.659Z,36
2022-08-31T07:12:44.165Z,50
2022-08-31T07:13:48.639Z,48
2022-08-31T07:14:54.736Z,43
2022-08-31T07:15:58.389Z,43
2022-08-31T07:17:02.978Z,41
2022-08-31T07:18:10.359Z,44
2022-08-31T07:19:13.118Z,35
2022-08-31T07:20:17.900Z,31
2022-08-31T07:21:22.542Z,32
2022-08-31T07:22:27.153Z,33
2022-08-31T07:23:32.081Z,31
2022-08-31T07:24:36.719Z,45
2022-08-31T07:25:41.535Z,38
2022-08-31T07:26:46.233Z,38
2022-08-31T07:27:53.950Z,32
2022-08-31T07:28:58.682Z,36
2022-08-31T07:30:03.443Z,35
2022-08-31T07:31:08.366Z,35
2022-08-31T07:32:12.847Z,34
2022-08-31T07:33:17.982Z,32
2022-08-31T07:34:22.834Z,38
2022-08-31T07:35:27.481Z,36
2022-08-31T07:36:32.561Z,36
2022-08-31T07:37:36.958Z,38
2022-08-31T07:38:47.129Z,42
2022-08-31T07:39:56.866Z,40
2022-08-31T07:41:08.105Z,40
2022-08-31T07:42:21.449Z,43
2022-08-31T07:43:52.777Z,46
2022-08-31T07:44:57.168Z,46
2022-08-31T07:46:01.713Z,44
2022-08-31T07:47:06.319Z,40
2022-08-31T07:48:13.801Z,42
2022-08-31T07:49:18.481Z,44
2022-08-31T07:50:24.365Z,49
2022-08-31T07:51:28.965Z,44
2022-08-31T07:52:33.793Z,41
2022-08-31T07:53:38.452Z,37
2022-08-31T07:54:42.901Z,37
2022-08-31T07:55:47.843Z,42
2022-08-31T07:56:54.981Z,47
2022-08-31T07:57:59.709Z,46
2022-08-31T07:59:04.336Z,49
2022-08-31T08:00:09.108Z,48
2022-08-31T08:01:13.925Z,56
2022-08-31T08:02:18.756Z,70
2022-08-31T08:03:23.482Z,72
2022-08-31T08:04:28.425Z,79
2022-08-31T08:05:35.430Z,78
2022-08-31T08:06:37.598Z,85
2022-08-31T08:07:42.686Z,85
2022-08-31T08:09:06.741Z,89
2022-08-31T08:09:55.366Z,77
2022-08-31T08:11:00.549Z,79
2022-08-31T08:12:05.106Z,85
2022-08-31T08:13:09.890Z,87
2022-08-31T08:14:14.385Z,84
2022-08-31T08:15:20.397Z,81
2022-08-31T08:16:27.735Z,82
2022-08-31T08:17:36.294Z,84
2022-08-31T08:18:41.917Z,83
2022-08-31T08:19:46.842Z,82
2022-08-31T08:20:51.477Z,81
2022-08-31T08:21:56.173Z,71
2022-08-31T08:23:01.337Z,64
2022-08-31T08:24:15.062Z,74
2022-08-31T08:25:21.379Z,75
2022-08-31T08:26:24.253Z,69
2022-08-31T08:27:29.877Z,68
2022-08-31T08:28:41.596Z,70
2022-08-31T08:29:38.833Z,61
2022-08-31T08:30:43.534Z,58
2022-08-31T08:31:48.411Z,52
2022-08-31T08:32:55.945Z,51
2022-08-31T08:34:00.815Z,57
2022-08-31T08:35:05.301Z,43
2022-08-31T08:36:10.174Z,44
2022-08-31T08:37:14.974Z,34
2022-08-31T08:38:19.677Z,43
2022-08-31T08:39:24.344Z,32
2022-08-31T08:40:29.093Z,28
2022-08-31T08:41:33.442Z,38
2022-08-31T08:42:38.670Z,28
2022-08-31T08:43:43.719Z,30
2022-08-31T08:44:52.690Z,26
2022-08-31T08:46:03.780Z,25
2022-08-31T08:47:02.723Z,28
2022-08-31T08:48:07.434Z,25
2022-08-31T08:49:11.879Z,30
2022-08-31T08:50:16.834Z,25
2022-08-31T08:51:21.843Z,38
2022-08-31T08:52:26.734Z,27
2022-08-31T08:53:36.444Z,29
2022-08-31T08:54:40.934Z,42
2022-08-31T08:55:45.546Z,43
2022-08-31T08:56:54.450Z,40
2022-08-31T08:58:00.070Z,45
2022-08-31T08:59:10.618Z,55
2022-08-31T09:00:12.090Z,43
2022-08-31T09:01:19.615Z,52
2022-08-31T09:02:31.212Z,56
2022-08-31T09:03:40.587Z,55
2022-08-31T09:04:45.438Z,58
2022-08-31T09:05:54.871Z,54
2022-08-31T09:07:11.878Z,58
2022-08-31T09:08:24.880Z,59
2022-08-31T09:09:36.862Z,66
2022-08-31T09:10:46.466Z,57
2022-08-31T09:11:56.116Z,62
2022-08-31T09:13:10.423Z,65
2022-08-31T09:14:25.154Z,74
2022-08-31T09:15:34.646Z,68
2022-08-31T09:16:46.759Z,61
2022-08-31T09:18:01.405Z,65
2022-08-31T09:19:15.910Z,68
2022-08-31T09:20:20.255Z,79
2022-08-31T09:21:24.686Z,80
2022-08-31T09:22:31.794Z,69
2022-08-31T09:23:44.188Z,70
2022-08-31T09:24:51.717Z,73
2022-08-31T09:25:53.502Z,65
2022-08-31T09:26:58.374Z,70
2022-08-31T09:28:05.334Z,70
2022-08-31T09:29:09.810Z,63
2022-08-31T09:30:24.554Z,51
2022-08-31T09:31:36.912Z,49
2022-08-31T09:32:41.455Z,47
2022-08-31T09:33:54.106Z,43
2022-08-31T09:34:58.530Z,39
2022-08-31T09:36:08.526Z,29
2022-08-31T09:37:15.734Z,52
2022-08-31T09:38:19.958Z,35
2022-08-31T09:39:29.381Z,25
2022-08-31T09:40:33.946Z,36
2022-08-31T09:41:43.448Z,27
2022-08-31T09:42:48.074Z,25
2022-08-31T09:44:02.663Z,31
2022-08-31T09:45:17.303Z,40
2022-08-31T09:46:21.716Z,25
2022-08-31T09:47:29.666Z,27
2022-08-31T09:48:42.202Z,31
2022-08-31T09:49:49.698Z,34
2022-08-31T09:50:56.878Z,30
2022-08-31T09:52:01.074Z,34
2022-08-31T09:53:14.744Z,33
2022-08-31T09:54:24.338Z,39
2022-08-31T09:55:33.491Z,36
2022-08-31T09:56:38.338Z,38
2022-08-31T09:57:47.839Z,35
2022-08-31T09:58:58.871Z,48
2022-08-31T10:00:03.417Z,39
2022-08-31T10:01:08.219Z,39
2022-08-31T10:02:22.687Z,47
2022-08-31T10:03:32.243Z,39
2022-08-31T10:04:36.766Z,39
2022-08-31T10:05:46.089Z,29
2022-08-31T10:06:50.342Z,32
2022-08-31T10:08:04.711Z,31
2022-08-31T10:09:19.276Z,37
2022-08-31T10:10:31.911Z,43
2022-08-31T10:11:35.754Z,41
2022-08-31T10:12:40.170Z,31
2022-08-31T10:13:49.490Z,25
2022-08-31T10:15:02.054Z,27
2022-08-31T10:16:06.793Z,38
2022-08-31T10:17:11.008Z,40
2022-08-31T10:18:15.284Z,29
2022-08-31T10:19:24.482Z,25
2022-08-31T10:20:30.507Z,27
2022-08-31T10:21:33.115Z,33
2022-08-31T10:22:40.403Z,38
2022-08-31T10:23:44.641Z,31
2022-08-31T10:24:53.931Z,39
2022-08-31T10:25:58.178Z,33
2022-08-31T10:27:05.535Z,27
2022-08-31T10:28:12.926Z,28
2022-08-31T10:29:27.471Z,33
2022-08-31T10:30:36.837Z,40
2022-08-31T10:31:48.357Z,31
2022-08-31T10:32:50.362Z,33
2022-08-31T10:33:59.935Z,50
2022-08-31T10:35:14.159Z,38
2022-08-31T10:36:18.502Z,31
2022-08-31T10:37:22.799Z,34
2022-08-31T10:38:32.246Z,38
2022-08-31T10:39:36.506Z,38
2022-08-31T10:40:41.162Z,36
2022-08-31T10:41:45.686Z,44
2022-08-31T10:42:49.995Z,34
2022-08-31T10:44:04.652Z,40
2022-08-31T10:45:15.234Z,44
2022-08-31T10:46:19.584Z,41
2022-08-31T10:47:33.189Z,54
2022-08-31T10:48:28.531Z,38
2022-08-31T10:49:32.812Z,36
2022-08-31T10:50:40.077Z,36
2022-08-31T10:51:52.230Z,44
2022-08-31T10:53:04.331Z,29
2022-08-31T10:54:16.355Z,27
2022-08-31T10:55:25.695Z,28
2022-08-31T10:56:32.683Z,34
2022-08-31T10:57:42.058Z,25
2022-08-31T10:58:46.239Z,41
2022-08-31T11:00:00.818Z,42
2022-08-31T11:01:13.228Z,30
2022-08-31T11:02:25.734Z,34
2022-08-31T11:03:35.665Z,26
2022-08-31T11:04:45.934Z,31
2022-08-31T11:05:53.067Z,34
2022-08-31T11:07:00.274Z,38
2022-08-31T11:08:12.622Z,28
2022-08-31T11:09:22.130Z,37
2022-08-31T11:10:26.414Z,42
2022-08-31T11:11:42.562Z,28
2022-08-31T11:12:50.438Z,27
2022-08-31T11:13:54.835Z,26
2022-08-31T11:14:59.154Z,28
2022-08-31T11:16:03.411Z,28
2022-08-31T11:17:11.915Z,40
2022-08-31T11:18:20.460Z,36
2022-08-31T11:19:35.120Z,43
2022-08-31T11:20:49.778Z,39
2022-08-31T11:22:04.466Z,27
2022-08-31T11:23:14.756Z,34
2022-08-31T11:24:24.103Z,32
2022-08-31T11:25:31.195Z,28
2022-08-31T11:26:40.847Z,26
2022-08-31T11:27:45.158Z,33
2022-08-31T11:28:52.312Z,33
2022-08-31T11:30:01.939Z,30
2022-08-31T11:31:06.741Z,28
2022-08-31T11:32:11.347Z,37
2022-08-31T11:33:18.907Z,37
2022-08-31T11:34:23.206Z,33
2022-08-31T11:35:27.550Z,44
2022-08-31T11:36:40.166Z,44
2022-08-31T11:37:49.610Z,42
2022-08-31T11:38:53.947Z,62
2022-08-31T11:40:03.363Z,49
2022-08-31T11:41:07.774Z,54
2022-08-31T11:42:12.135Z,43
2022-08-31T11:43:26.486Z,46
2022-08-31T11:44:34.271Z,38
2022-08-31T11:45:37.823Z,38
2022-08-31T11:47:45.795Z,39
2022-08-31T11:48:50.286Z,40
2022-08-31T11:49:57.159Z,51
2022-08-31T11:51:01.595Z,45
2022-08-31T11:52:06.762Z,55
2022-08-31T11:53:14.143Z,38
2022-08-31T11:54:23.619Z,46
2022-08-31T11:55:28.034Z,53
2022-08-31T11:56:42.857Z,50
2022-08-31T11:57:47.125Z,62
2022-08-31T11:59:02.070Z,53
2022-08-31T12:00:16.518Z,57
2022-08-31T12:01:20.792Z,51
2022-08-31T12:02:30.330Z,57
2022-08-31T12:04:41.170Z,62
2022-08-31T12:05:48.284Z,71
2022-08-31T12:06:52.693Z,67
2022-08-31T12:07:57.002Z,82
2022-08-31T12:09:01.206Z,80
2022-08-31T12:10:10.642Z,82
2022-08-31T12:11:20.246Z,93
2022-08-31T12:12:34.619Z,86
2022-08-31T12:13:41.399Z,87
2022-08-31T12:14:49.263Z,93
2022-08-31T12:15:59.133Z,97
2022-08-31T12:17:06.606Z,92
2022-08-31T12:18:21.027Z,87
2022-08-31T12:19:36.153Z,98
2022-08-31T12:20:55.608Z,98
2022-08-31T12:22:04.990Z,108
2022-08-31T12:23:30.533Z,103
2022-08-31T12:24:26.974Z,97
2022-08-31T12:25:41.426Z,99
2022-08-31T12:26:55.954Z,101
2022-08-31T12:28:10.650Z,108
2022-08-31T12:29:20.950Z,101
2022-08-31T12:30:30.414Z,97
2022-08-31T12:31:35.756Z,103
2022-08-31T12:32:40.030Z,107
2022-08-31T12:33:44.345Z,107
2022-08-31T12:34:56.669Z,102
2022-08-31T12:36:09.222Z,97
2022-08-31T12:37:16.478Z,100
2022-08-31T12:38:25.962Z,95
2022-08-31T12:39:34.379Z,92
2022-08-31T12:40:39.577Z,102
2022-08-31T12:42:57.994Z,98
2022-08-31T12:44:13.963Z,95
2022-08-31T12:45:14.439Z,105
2022-08-31T12:46:19.592Z,107
2022-08-31T12:47:26.453Z,97
2022-08-31T12:48:38.198Z,97
2022-08-31T12:49:52.924Z,95
2022-08-31T12:51:10.691Z,101
2022-08-31T12:52:27.234Z,102
2022-08-31T12:53:37.574Z,107
2022-08-31T12:54:49.231Z,97
2022-08-31T12:55:58.818Z,108
2022-08-31T12:57:10.879Z,95
2022-08-31T12:58:20.242Z,96
2022-08-31T12:59:45.934Z,110
2022-08-31T13:00:37.235Z,104
2022-08-31T13:01:41.770Z,102
2022-08-31T13:02:46.028Z,98
2022-08-31T13:03:53.913Z,87
2022-08-31T13:04:54.601Z,93
2022-08-31T13:05:58.802Z,93
2022-08-31T13:07:03.490Z,96
2022-08-31T13:08:13.018Z,93
2022-08-31T13:09:22.858Z,83
2022-08-31T13:10:27.538Z,92
2022-08-31T13:11:35.066Z,93
2022-08-31T13:12:36.820Z,90
2022-08-31T13:13:42.066Z,94
2022-08-31T13:14:46.934Z,93
2022-08-31T13:15:51.346Z,86
2022-08-31T13:17:01.135Z,82
2022-08-31T13:18:06.154Z,90
2022-08-31T13:19:13.883Z,82
2022-08-31T13:20:23.186Z,75
2022-08-31T13:21:28.089Z,76
2022-08-31T13:22:32.418Z,76
2022-08-31T13:23:36.694Z,83
2022-08-31T13:24:41.640Z,80
2022-08-31T13:25:51.126Z,84
2022-08-31T13:27:01.131Z,79
2022-08-31T13:28:05.718Z,75
2022-08-31T13:29:12.915Z,80
2022-08-31T13:30:17.114Z,80
2022-08-31T13:31:21.664Z,78
2022-08-31T13:32:28.839Z,79
2022-08-31T13:33:33.443Z,86
2022-08-31T13:34:37.830Z,87
2022-08-31T13:35:45.206Z,76
2022-08-31T13:36:52.993Z,82
2022-08-31T13:37:54.071Z,77
2022-08-31T13:39:01.617Z,79
2022-08-31T13:40:14.270Z,89
2022-08-31T13:41:18.874Z,86
2022-08-31T13:42:23.421Z,87
2022-08-31T13:43:37.549Z,94
2022-08-31T13:44:40.254Z,90
2022-08-31T13:45:44.991Z,85
2022-08-31T13:46:49.997Z,93
2022-08-31T13:47:57.551Z,91
2022-08-31T13:49:01.983Z,87
2022-08-31T13:50:06.619Z,89
2022-08-31T13:51:13.875Z,88
2022-08-31T13:52:18.371Z,84
2022-08-31T13:53:26.565Z,94
2022-08-31T13:54:37.486Z,86
2022-08-31T13:55:41.894Z,93
2022-08-31T13:56:46.654Z,90
2022-08-31T13:57:56.571Z,86
2022-08-31T13:59:06.234Z,80
2022-08-31T14:00:13.566Z,82
2022-08-31T14:01:25.818Z,78
2022-08-31T14:02:31.008Z,72
2022-08-31T14:03:34.535Z,72
2022-08-31T14:04:39.067Z,67
2022-08-31T14:05:51.495Z,61
2022-08-31T14:06:56.097Z,72
2022-08-31T14:08:00.495Z,64
2022-08-31T14:09:04.907Z,61
2022-08-31T14:10:12.227Z,66
2022-08-31T14:11:19.342Z,68
2022-08-31T14:12:23.850Z,65
2022-08-31T14:13:36.118Z,64
2022-08-31T14:14:40.425Z,62
2022-08-31T14:15:44.695Z,65
2022-08-31T14:16:51.935Z,69
2022-08-31T14:18:28.970Z,66
2022-08-31T14:19:11.519Z,75
2022-08-31T14:20:15.698Z,54
2022-08-31T14:21:30.342Z,63
2022-08-31T14:22:35.133Z,60
2022-08-31T14:23:39.532Z,53
2022-08-31T14:25:47.583Z,54
2022-08-31T14:26:51.876Z,63
2022-08-31T14:27:56.725Z,67
2022-08-31T14:29:01.035Z,67
2022-08-31T14:30:05.389Z,78
2022-08-31T14:31:10.162Z,75
2022-08-31T14:32:19.452Z,65
2022-08-31T14:33:23.821Z,70
2022-08-31T14:34:28.368Z,73
2022-08-31T14:35:32.981Z,79
2022-08-31T14:36:37.693Z,74
2022-08-31T14:37:45.237Z,76
2022-08-31T14:38:49.633Z,85
2022-08-31T14:39:56.838Z,85
2022-08-31T14:41:04.109Z,85
2022-08-31T14:42:08.756Z,105
2022-08-31T14:43:18.477Z,87
2022-08-31T14:44:22.947Z,96
2022-08-31T14:45:27.336Z,92
2022-08-31T14:46:31.729Z,89
2022-08-31T14:47:36.163Z,105
2022-08-31T14:48:43.036Z,90
2022-08-31T14:49:47.569Z,88
2022-08-31T14:50:52.041Z,84
2022-08-31T14:51:56.689Z,86
2022-08-31T14:53:01.190Z,81
2022-08-31T14:54:05.648Z,90
2022-08-31T14:55:14.684Z,83
2022-08-31T14:56:19.201Z,84
2022-08-31T14:57:23.465Z,71
2022-08-31T14:58:28.122Z,71
2022-08-31T14:59:32.477Z,65
2022-08-31T15:00:36.993Z,59
2022-08-31T15:02:46.173Z,67
2022-08-31T15:03:50.834Z,67
2022-08-31T15:04:56.053Z,63
2022-08-31T15:06:03.226Z,62
2022-08-31T15:07:09.865Z,60
2022-08-31T15:08:12.464Z,63
2022-08-31T15:09:16.904Z,51
2022-08-31T15:10:21.320Z,47
2022-08-31T15:11:25.621Z,44
2022-08-31T15:12:30.045Z,52
2022-08-31T15:13:34.689Z,41
2022-08-31T15:14:39.325Z,44
2022-08-31T15:15:47.754Z,60
2022-08-31T15:16:51.427Z,47
2022-08-31T15:17:59.909Z,41
2022-08-31T15:19:04.270Z,38
2022-08-31T15:20:08.761Z,47
2022-08-31T15:21:13.334Z,54
2022-08-31T15:22:18.197Z,47
2022-08-31T15:23:22.773Z,45
2022-08-31T15:24:27.256Z,49
2022-08-31T15:25:31.664Z,43
2022-08-31T15:26:36.337Z,44
2022-08-31T15:27:40.849Z,48
2022-08-31T15:28:45.304Z,50
2022-08-31T15:29:50.026Z,49
2022-08-31T15:30:54.620Z,50
2022-08-31T15:31:59.119Z,55
2022-08-31T15:33:03.553Z,61
2022-08-31T15:34:10.069Z,62
2022-08-31T15:35:12.333Z,58
2022-08-31T15:36:16.789Z,58
2022-08-31T15:37:21.337Z,60
2022-08-31T15:38:26.337Z,59
2022-08-31T15:39:30.989Z,61
2022-08-31T15:40:38.528Z,65
2022-08-31T15:41:39.909Z,72
2022-08-31T15:42:44.417Z,73
2022-08-31T15:43:49.028Z,69
2022-08-31T15:44:53.596Z,78
2022-08-31T15:46:01.959Z,74
2022-08-31T15:47:06.688Z,75
2022-08-31T15:48:16.185Z,76
2022-08-31T15:49:29.257Z,79
2022-08-31T15:50:32.649Z,79
2022-08-31T15:51:36.721Z,82
2022-08-31T15:52:43.722Z,85
2022-08-31T15:54:00.980Z,91
2022-08-31T15:54:52.789Z,92
2022-08-31T15:55:57.300Z,97
2022-08-31T15:57:04.789Z,99